sensor_id;sensor_type;location;lat;lon;timestamp;P1;durP1;ratioP1;P2;durP2;ratioP2
5054;SDS011;13829;48.990;8.346;2022-07-12T00:00:35;3.27;;;2.57;;
5054;SDS011;13829;48.990;8.346;2022-07-12T00:03:02;3.17;;;2.80;;
5054;SDS011;13829;48.990;8.346;2022-07-12T00:05:29;5.67;;;2.50;;
5054;SDS011;13829;48.990;8.346;2022-07-12T00:07:56;3.97;;;2.57;;
5054;SDS011;13829;48.990;8.346;2022-07-12T00:10:23;3.90;;;2.80;;
5054;SDS011;13829;48.990;8.346;2022-07-12T00:12:50;2.90;;;2.60;;
5054;SDS011;13829;48.990;8.346;2022-07-12T00:15:17;4.50;;;2.60;;
5054;SDS011;13829;48.990;8.346;2022-07-12T00:17:46;3.10;;;2.60;;
5054;SDS011;13829;48.990;8.346;2022-07-12T00:20:13;3.70;;;2.80;;
5054;SDS011;13829;48.990;8.346;2022-07-12T00:22:40;3.67;;;2.67;;
5054;SDS011;13829;48.990;8.346;2022-07-12T00:25:07;6.53;;;2.93;;
5054;SDS011;13829;48.990;8.346;2022-07-12T00:27:35;3.20;;;2.77;;
5054;SDS011;13829;48.990;8.346;2022-07-12T00:30:03;3.40;;;3.03;;
5054;SDS011;13829;48.990;8.346;2022-07-12T00:32:31;2.50;;;2.30;;
5054;SDS011;13829;48.990;8.346;2022-07-12T00:35:00;2.90;;;2.60;;
5054;SDS011;13829;48.990;8.346;2022-07-12T00:37:27;2.83;;;2.53;;
5054;SDS011;13829;48.990;8.346;2022-07-12T00:39:54;4.40;;;2.63;;
5054;SDS011;13829;48.990;8.346;2022-07-12T00:42:22;4.93;;;2.93;;
5054;SDS011;13829;48.990;8.346;2022-07-12T00:44:49;3.87;;;2.60;;
5054;SDS011;13829;48.990;8.346;2022-07-12T00:47:19;2.93;;;2.57;;
5054;SDS011;13829;48.990;8.346;2022-07-12T00:50:00;4.50;;;2.80;;
5054;SDS011;13829;48.990;8.346;2022-07-12T00:52:27;4.33;;;2.50;;
5054;SDS011;13829;48.990;8.346;2022-07-12T00:54:54;2.90;;;2.63;;
5054;SDS011;13829;48.990;8.346;2022-07-12T00:57:21;4.27;;;2.70;;
5054;SDS011;13829;48.990;8.346;2022-07-12T00:59:48;2.87;;;2.67;;
5054;SDS011;13829;48.990;8.346;2022-07-12T01:02:15;3.47;;;2.70;;
5054;SDS011;13829;48.990;8.346;2022-07-12T01:04:43;3.93;;;2.60;;
5054;SDS011;13829;48.990;8.346;2022-07-12T01:07:13;5.03;;;2.43;;
5054;SDS011;13829;48.990;8.346;2022-07-12T01:09:41;4.20;;;2.57;;
5054;SDS011;13829;48.990;8.346;2022-07-12T01:12:08;3.43;;;2.80;;
5054;SDS011;13829;48.990;8.346;2022-07-12T01:14:36;2.67;;;2.47;;
5054;SDS011;13829;48.990;8.346;2022-07-12T01:17:05;2.70;;;2.50;;
5054;SDS011;13829;48.990;8.346;2022-07-12T01:19:32;4.10;;;2.47;;
5054;SDS011;13829;48.990;8.346;2022-07-12T01:22:03;3.83;;;2.50;;
5054;SDS011;13829;48.990;8.346;2022-07-12T01:24:37;3.60;;;2.40;;
5054;SDS011;13829;48.990;8.346;2022-07-12T01:27:04;3.60;;;2.50;;
5054;SDS011;13829;48.990;8.346;2022-07-12T01:29:32;3.00;;;2.70;;
5054;SDS011;13829;48.990;8.346;2022-07-12T01:32:00;3.57;;;3.13;;
5054;SDS011;13829;48.990;8.346;2022-07-12T01:34:49;4.57;;;3.00;;
5054;SDS011;13829;48.990;8.346;2022-07-12T01:37:19;4.30;;;2.67;;
5054;SDS011;13829;48.990;8.346;2022-07-12T01:39:49;3.20;;;2.90;;
5054;SDS011;13829;48.990;8.346;2022-07-12T01:42:20;3.37;;;2.60;;
5054;SDS011;13829;48.990;8.346;2022-07-12T01:44:48;2.53;;;2.20;;
5054;SDS011;13829;48.990;8.346;2022-07-12T01:47:16;2.90;;;2.43;;
5054;SDS011;13829;48.990;8.346;2022-07-12T01:49:44;2.47;;;2.27;;
5054;SDS011;13829;48.990;8.346;2022-07-12T01:52:11;2.67;;;2.47;;
5054;SDS011;13829;48.990;8.346;2022-07-12T01:54:38;3.67;;;3.30;;
5054;SDS011;13829;48.990;8.346;2022-07-12T01:57:08;3.33;;;2.60;;
5054;SDS011;13829;48.990;8.346;2022-07-12T01:59:36;3.47;;;2.73;;
5054;SDS011;13829;48.990;8.346;2022-07-12T02:02:05;3.60;;;2.80;;
5054;SDS011;13829;48.990;8.346;2022-07-12T02:04:33;3.93;;;2.90;;
5054;SDS011;13829;48.990;8.346;2022-07-12T02:07:00;3.90;;;2.77;;
5054;SDS011;13829;48.990;8.346;2022-07-12T02:09:28;4.67;;;2.40;;
5054;SDS011;13829;48.990;8.346;2022-07-12T02:11:55;2.47;;;2.27;;
5054;SDS011;13829;48.990;8.346;2022-07-12T02:14:24;2.80;;;2.50;;
5054;SDS011;13829;48.990;8.346;2022-07-12T02:16:51;3.13;;;2.57;;
5054;SDS011;13829;48.990;8.346;2022-07-12T02:19:18;7.00;;;2.90;;
5054;SDS011;13829;48.990;8.346;2022-07-12T02:21:45;2.83;;;2.53;;
5054;SDS011;13829;48.990;8.346;2022-07-12T02:24:12;3.63;;;2.43;;
5054;SDS011;13829;48.990;8.346;2022-07-12T02:26:39;4.40;;;2.93;;
5054;SDS011;13829;48.990;8.346;2022-07-12T02:29:08;2.77;;;2.53;;
5054;SDS011;13829;48.990;8.346;2022-07-12T02:31:37;2.90;;;2.57;;
5054;SDS011;13829;48.990;8.346;2022-07-12T02:34:04;3.73;;;2.87;;
5054;SDS011;13829;48.990;8.346;2022-07-12T02:36:32;3.20;;;2.90;;
5054;SDS011;13829;48.990;8.346;2022-07-12T02:38:59;3.30;;;2.60;;
5054;SDS011;13829;48.990;8.346;2022-07-12T02:41:28;2.80;;;2.60;;
5054;SDS011;13829;48.990;8.346;2022-07-12T02:43:56;3.60;;;2.77;;
5054;SDS011;13829;48.990;8.346;2022-07-12T02:46:23;3.63;;;2.43;;
5054;SDS011;13829;48.990;8.346;2022-07-12T02:48:52;3.50;;;2.83;;
5054;SDS011;13829;48.990;8.346;2022-07-12T02:51:19;3.87;;;2.87;;
5054;SDS011;13829;48.990;8.346;2022-07-12T02:53:46;2.87;;;2.67;;
5054;SDS011;13829;48.990;8.346;2022-07-12T02:56:13;3.23;;;2.50;;
5054;SDS011;13829;48.990;8.346;2022-07-12T02:58:40;4.73;;;2.60;;
5054;SDS011;13829;48.990;8.346;2022-07-12T03:01:07;3.70;;;2.73;;
5054;SDS011;13829;48.990;8.346;2022-07-12T03:03:36;3.20;;;2.63;;
5054;SDS011;13829;48.990;8.346;2022-07-12T03:06:04;2.97;;;2.77;;
5054;SDS011;13829;48.990;8.346;2022-07-12T03:08:31;3.40;;;3.10;;
5054;SDS011;13829;48.990;8.346;2022-07-12T03:10:59;4.10;;;2.87;;
5054;SDS011;13829;48.990;8.346;2022-07-12T03:13:26;3.50;;;2.63;;
5054;SDS011;13829;48.990;8.346;2022-07-12T03:15:52;2.70;;;2.50;;
5054;SDS011;13829;48.990;8.346;2022-07-12T03:18:19;2.80;;;2.50;;
5054;SDS011;13829;48.990;8.346;2022-07-12T03:20:46;3.07;;;2.77;;
5054;SDS011;13829;48.990;8.346;2022-07-12T03:23:15;4.30;;;2.87;;
5054;SDS011;13829;48.990;8.346;2022-07-12T03:25:42;4.63;;;2.90;;
5054;SDS011;13829;48.990;8.346;2022-07-12T03:28:09;3.27;;;2.97;;
5054;SDS011;13829;48.990;8.346;2022-07-12T03:30:36;5.47;;;2.87;;
5054;SDS011;13829;48.990;8.346;2022-07-12T03:33:03;3.90;;;2.83;;
5054;SDS011;13829;48.990;8.346;2022-07-12T03:35:30;5.80;;;3.10;;
5054;SDS011;13829;48.990;8.346;2022-07-12T03:37:57;4.23;;;2.80;;
5054;SDS011;13829;48.990;8.346;2022-07-12T03:40:25;4.37;;;2.90;;
5054;SDS011;13829;48.990;8.346;2022-07-12T03:42:52;4.77;;;3.03;;
5054;SDS011;13829;48.990;8.346;2022-07-12T03:45:20;3.13;;;2.93;;
5054;SDS011;13829;48.990;8.346;2022-07-12T03:47:47;3.37;;;2.80;;
5054;SDS011;13829;48.990;8.346;2022-07-12T03:50:15;3.97;;;3.00;;
5054;SDS011;13829;48.990;8.346;2022-07-12T03:52:42;3.70;;;2.87;;
5054;SDS011;13829;48.990;8.346;2022-07-12T03:55:10;4.80;;;3.10;;
5054;SDS011;13829;48.990;8.346;2022-07-12T03:57:40;4.63;;;3.07;;
5054;SDS011;13829;48.990;8.346;2022-07-12T04:00:08;2.93;;;2.70;;
5054;SDS011;13829;48.990;8.346;2022-07-12T04:02:37;3.43;;;2.87;;
5054;SDS011;13829;48.990;8.346;2022-07-12T04:05:05;2.80;;;2.60;;
5054;SDS011;13829;48.990;8.346;2022-07-12T04:07:34;3.43;;;2.90;;
5054;SDS011;13829;48.990;8.346;2022-07-12T04:10:03;3.20;;;2.90;;
5054;SDS011;13829;48.990;8.346;2022-07-12T04:12:31;4.93;;;2.70;;
5054;SDS011;13829;48.990;8.346;2022-07-12T04:15:00;3.70;;;2.70;;
5054;SDS011;13829;48.990;8.346;2022-07-12T04:17:27;3.83;;;3.10;;
5054;SDS011;13829;48.990;8.346;2022-07-12T04:19:54;3.77;;;3.00;;
5054;SDS011;13829;48.990;8.346;2022-07-12T04:22:21;3.43;;;2.80;;
5054;SDS011;13829;48.990;8.346;2022-07-12T04:24:49;4.37;;;2.67;;
5054;SDS011;13829;48.990;8.346;2022-07-12T04:27:15;6.60;;;3.00;;
5054;SDS011;13829;48.990;8.346;2022-07-12T04:29:42;2.83;;;2.63;;
5054;SDS011;13829;48.990;8.346;2022-07-12T04:32:12;3.33;;;2.90;;
5054;SDS011;13829;48.990;8.346;2022-07-12T04:34:39;4.40;;;3.40;;
5054;SDS011;13829;48.990;8.346;2022-07-12T04:37:06;3.90;;;3.20;;
5054;SDS011;13829;48.990;8.346;2022-07-12T04:39:33;4.23;;;3.17;;
5054;SDS011;13829;48.990;8.346;2022-07-12T04:41:59;3.93;;;3.53;;
5054;SDS011;13829;48.990;8.346;2022-07-12T04:44:27;4.07;;;3.20;;
5054;SDS011;13829;48.990;8.346;2022-07-12T04:46:54;3.50;;;3.20;;
5054;SDS011;13829;48.990;8.346;2022-07-12T04:49:22;4.77;;;3.03;;
5054;SDS011;13829;48.990;8.346;2022-07-12T04:51:49;2.93;;;2.70;;
5054;SDS011;13829;48.990;8.346;2022-07-12T04:54:16;4.10;;;3.00;;
5054;SDS011;13829;48.990;8.346;2022-07-12T04:56:43;3.23;;;2.93;;
5054;SDS011;13829;48.990;8.346;2022-07-12T04:59:10;3.10;;;2.80;;
5054;SDS011;13829;48.990;8.346;2022-07-12T05:01:37;2.83;;;2.60;;
5054;SDS011;13829;48.990;8.346;2022-07-12T05:04:05;4.70;;;2.93;;
5054;SDS011;13829;48.990;8.346;2022-07-12T05:06:33;4.33;;;2.77;;
5054;SDS011;13829;48.990;8.346;2022-07-12T05:09:00;4.13;;;2.90;;
5054;SDS011;13829;48.990;8.346;2022-07-12T05:11:27;3.80;;;2.90;;
5054;SDS011;13829;48.990;8.346;2022-07-12T05:13:54;4.60;;;3.20;;
5054;SDS011;13829;48.990;8.346;2022-07-12T05:16:21;4.63;;;3.33;;
5054;SDS011;13829;48.990;8.346;2022-07-12T05:18:49;4.07;;;2.67;;
5054;SDS011;13829;48.990;8.346;2022-07-12T05:21:18;5.23;;;2.73;;
5054;SDS011;13829;48.990;8.346;2022-07-12T05:23:46;2.93;;;2.67;;
5054;SDS011;13829;48.990;8.346;2022-07-12T05:26:13;6.83;;;2.90;;
5054;SDS011;13829;48.990;8.346;2022-07-12T05:28:40;3.10;;;2.43;;
5054;SDS011;13829;48.990;8.346;2022-07-12T05:31:08;6.17;;;2.80;;
5054;SDS011;13829;48.990;8.346;2022-07-12T05:33:36;3.70;;;2.57;;
5054;SDS011;13829;48.990;8.346;2022-07-12T05:36:03;3.27;;;2.87;;
5054;SDS011;13829;48.990;8.346;2022-07-12T05:38:30;4.33;;;2.70;;
5054;SDS011;13829;48.990;8.346;2022-07-12T05:40:59;3.90;;;2.40;;
5054;SDS011;13829;48.990;8.346;2022-07-12T05:43:26;4.43;;;2.33;;
5054;SDS011;13829;48.990;8.346;2022-07-12T05:45:53;4.30;;;2.40;;
5054;SDS011;13829;48.990;8.346;2022-07-12T05:48:22;4.07;;;2.53;;
5054;SDS011;13829;48.990;8.346;2022-07-12T05:50:49;2.63;;;2.30;;
5054;SDS011;13829;48.990;8.346;2022-07-12T05:53:15;3.10;;;2.50;;
5054;SDS011;13829;48.990;8.346;2022-07-12T05:55:47;3.63;;;2.43;;
5054;SDS011;13829;48.990;8.346;2022-07-12T05:58:17;4.33;;;2.80;;
5054;SDS011;13829;48.990;8.346;2022-07-12T06:00:45;7.50;;;2.93;;
5054;SDS011;13829;48.990;8.346;2022-07-12T06:03:12;3.97;;;2.67;;
5054;SDS011;13829;48.990;8.346;2022-07-12T06:05:39;4.63;;;2.87;;
5054;SDS011;13829;48.990;8.346;2022-07-12T06:08:07;7.03;;;2.50;;
5054;SDS011;13829;48.990;8.346;2022-07-12T06:10:34;5.00;;;2.30;;
5054;SDS011;13829;48.990;8.346;2022-07-12T06:13:01;7.20;;;2.33;;
5054;SDS011;13829;48.990;8.346;2022-07-12T06:15:30;3.00;;;1.90;;
5054;SDS011;13829;48.990;8.346;2022-07-12T06:17:58;4.23;;;2.40;;
5054;SDS011;13829;48.990;8.346;2022-07-12T06:20:25;7.40;;;2.43;;
5054;SDS011;13829;48.990;8.346;2022-07-12T06:22:53;2.40;;;2.00;;
5054;SDS011;13829;48.990;8.346;2022-07-12T06:25:20;3.40;;;2.03;;
5054;SDS011;13829;48.990;8.346;2022-07-12T06:27:48;4.40;;;2.00;;
5054;SDS011;13829;48.990;8.346;2022-07-12T06:30:15;3.08;;;1.83;;
5054;SDS011;13829;48.990;8.346;2022-07-12T06:32:45;1.92;;;1.73;;
5054;SDS011;13829;48.990;8.346;2022-07-12T06:35:13;1.58;;;1.42;;
5054;SDS011;13829;48.990;8.346;2022-07-12T06:37:41;3.22;;;1.73;;
5054;SDS011;13829;48.990;8.346;2022-07-12T06:40:08;2.00;;;1.20;;
5054;SDS011;13829;48.990;8.346;2022-07-12T06:42:36;2.53;;;1.50;;
5054;SDS011;13829;48.990;8.346;2022-07-12T06:45:04;3.42;;;1.40;;
5054;SDS011;13829;48.990;8.346;2022-07-12T06:47:33;5.05;;;1.30;;
5054;SDS011;13829;48.990;8.346;2022-07-12T06:50:01;1.30;;;1.05;;
5054;SDS011;13829;48.990;8.346;2022-07-12T06:52:29;3.33;;;1.30;;
5054;SDS011;13829;48.990;8.346;2022-07-12T06:54:56;2.08;;;1.20;;
5054;SDS011;13829;48.990;8.346;2022-07-12T06:57:23;3.33;;;1.00;;
5054;SDS011;13829;48.990;8.346;2022-07-12T06:59:51;0.82;;;0.80;;
5054;SDS011;13829;48.990;8.346;2022-07-12T07:02:18;2.92;;;1.20;;
5054;SDS011;13829;48.990;8.346;2022-07-12T07:04:45;1.70;;;0.80;;
5054;SDS011;13829;48.990;8.346;2022-07-12T07:07:14;1.38;;;1.17;;
5054;SDS011;13829;48.990;8.346;2022-07-12T07:09:41;2.45;;;0.90;;
5054;SDS011;13829;48.990;8.346;2022-07-12T07:12:08;2.38;;;0.70;;
5054;SDS011;13829;48.990;8.346;2022-07-12T07:14:35;1.27;;;0.68;;
5054;SDS011;13829;48.990;8.346;2022-07-12T07:17:02;0.88;;;0.60;;
5054;SDS011;13829;48.990;8.346;2022-07-12T07:19:30;2.35;;;0.90;;
5054;SDS011;13829;48.990;8.346;2022-07-12T07:21:57;0.93;;;0.60;;
5054;SDS011;13829;48.990;8.346;2022-07-12T07:24:26;1.90;;;0.80;;
5054;SDS011;13829;48.990;8.346;2022-07-12T07:26:53;0.90;;;0.65;;
5054;SDS011;13829;48.990;8.346;2022-07-12T07:29:20;1.02;;;0.65;;
5054;SDS011;13829;48.990;8.346;2022-07-12T07:32:05;1.10;;;0.60;;
5054;SDS011;13829;48.990;8.346;2022-07-12T07:34:32;0.82;;;0.55;;
5054;SDS011;13829;48.990;8.346;2022-07-12T07:36:59;0.90;;;0.43;;
5054;SDS011;13829;48.990;8.346;2022-07-12T07:39:28;1.85;;;0.38;;
5054;SDS011;13829;48.990;8.346;2022-07-12T07:41:55;0.63;;;0.63;;
5054;SDS011;13829;48.990;8.346;2022-07-12T07:44:22;1.52;;;0.60;;
5054;SDS011;13829;48.990;8.346;2022-07-12T07:46:49;1.38;;;0.50;;
5054;SDS011;13829;48.990;8.346;2022-07-12T07:49:16;1.23;;;0.80;;
5054;SDS011;13829;48.990;8.346;2022-07-12T07:51:42;0.60;;;0.60;;
5054;SDS011;13829;48.990;8.346;2022-07-12T07:54:09;0.80;;;0.68;;
5054;SDS011;13829;48.990;8.346;2022-07-12T07:56:38;1.05;;;0.70;;
5054;SDS011;13829;48.990;8.346;2022-07-12T07:59:05;1.63;;;0.50;;
5054;SDS011;13829;48.990;8.346;2022-07-12T08:01:32;1.63;;;0.60;;
5054;SDS011;13829;48.990;8.346;2022-07-12T08:04:10;2.60;;;0.60;;
5054;SDS011;13829;48.990;8.346;2022-07-12T08:06:37;1.58;;;0.50;;
5054;SDS011;13829;48.990;8.346;2022-07-12T08:09:04;0.50;;;0.50;;
5054;SDS011;13829;48.990;8.346;2022-07-12T08:11:32;1.17;;;0.55;;
5054;SDS011;13829;48.990;8.346;2022-07-12T08:14:00;0.60;;;0.45;;
5054;SDS011;13829;48.990;8.346;2022-07-12T08:16:28;0.50;;;0.50;;
5054;SDS011;13829;48.990;8.346;2022-07-12T08:18:55;0.70;;;0.40;;
5054;SDS011;13829;48.990;8.346;2022-07-12T08:21:22;1.02;;;0.73;;
5054;SDS011;13829;48.990;8.346;2022-07-12T08:23:50;1.50;;;0.50;;
5054;SDS011;13829;48.990;8.346;2022-07-12T08:26:18;0.88;;;0.50;;
5054;SDS011;13829;48.990;8.346;2022-07-12T08:28:45;0.70;;;0.40;;
5054;SDS011;13829;48.990;8.346;2022-07-12T08:31:14;0.57;;;0.40;;
5054;SDS011;13829;48.990;8.346;2022-07-12T08:33:41;0.50;;;0.30;;
5054;SDS011;13829;48.990;8.346;2022-07-12T08:36:08;2.67;;;0.52;;
5054;SDS011;13829;48.990;8.346;2022-07-12T08:38:35;1.38;;;0.52;;
5054;SDS011;13829;48.990;8.346;2022-07-12T08:41:03;0.52;;;0.40;;
5054;SDS011;13829;48.990;8.346;2022-07-12T08:43:33;1.02;;;0.38;;
5054;SDS011;13829;48.990;8.346;2022-07-12T08:46:04;1.08;;;0.60;;
5054;SDS011;13829;48.990;8.346;2022-07-12T08:48:34;0.40;;;0.40;;
5054;SDS011;13829;48.990;8.346;2022-07-12T08:51:03;0.77;;;0.60;;
5054;SDS011;13829;48.990;8.346;2022-07-12T08:53:32;0.30;;;0.30;;
5054;SDS011;13829;48.990;8.346;2022-07-12T08:56:00;0.40;;;0.40;;
5054;SDS011;13829;48.990;8.346;2022-07-12T08:58:28;1.00;;;0.60;;
5054;SDS011;13829;48.990;8.346;2022-07-12T09:00:55;0.60;;;0.30;;
5054;SDS011;13829;48.990;8.346;2022-07-12T09:03:22;2.05;;;0.40;;
5054;SDS011;13829;48.990;8.346;2022-07-12T09:05:52;0.50;;;0.40;;
5054;SDS011;13829;48.990;8.346;2022-07-12T09:08:25;0.47;;;0.40;;
5054;SDS011;13829;48.990;8.346;2022-07-12T09:10:56;3.35;;;0.52;;
5054;SDS011;13829;48.990;8.346;2022-07-12T09:13:45;1.00;;;0.47;;
5054;SDS011;13829;48.990;8.346;2022-07-12T09:16:18;1.17;;;0.50;;
5054;SDS011;13829;48.990;8.346;2022-07-12T09:18:48;1.38;;;0.35;;
5054;SDS011;13829;48.990;8.346;2022-07-12T09:21:27;0.85;;;0.43;;
5054;SDS011;13829;48.990;8.346;2022-07-12T09:23:56;0.43;;;0.43;;
5054;SDS011;13829;48.990;8.346;2022-07-12T09:26:27;0.82;;;0.40;;
5054;SDS011;13829;48.990;8.346;2022-07-12T09:29:04;1.75;;;0.55;;
5054;SDS011;13829;48.990;8.346;2022-07-12T09:31:38;1.77;;;0.68;;
5054;SDS011;13829;48.990;8.346;2022-07-12T09:34:28;0.50;;;0.50;;
5054;SDS011;13829;48.990;8.346;2022-07-12T09:37:14;0.88;;;0.50;;
5054;SDS011;13829;48.990;8.346;2022-07-12T09:39:42;0.68;;;0.50;;
5054;SDS011;13829;48.990;8.346;2022-07-12T09:42:10;0.80;;;0.55;;
5054;SDS011;13829;48.990;8.346;2022-07-12T09:44:38;2.50;;;0.55;;
5054;SDS011;13829;48.990;8.346;2022-07-12T09:47:08;2.08;;;0.80;;
5054;SDS011;13829;48.990;8.346;2022-07-12T09:49:38;0.85;;;0.70;;
5054;SDS011;13829;48.990;8.346;2022-07-12T09:52:06;0.98;;;0.52;;
5054;SDS011;13829;48.990;8.346;2022-07-12T09:54:41;0.50;;;0.50;;
5054;SDS011;13829;48.990;8.346;2022-07-12T09:57:11;0.60;;;0.60;;
5054;SDS011;13829;48.990;8.346;2022-07-12T09:59:46;0.68;;;0.50;;
5054;SDS011;13829;48.990;8.346;2022-07-12T10:02:16;0.95;;;0.70;;
5054;SDS011;13829;48.990;8.346;2022-07-12T10:04:44;1.42;;;0.60;;
5054;SDS011;13829;48.990;8.346;2022-07-12T10:07:13;0.88;;;0.60;;
5054;SDS011;13829;48.990;8.346;2022-07-12T10:09:42;2.00;;;0.50;;
5054;SDS011;13829;48.990;8.346;2022-07-12T10:12:15;1.00;;;0.50;;
5054;SDS011;13829;48.990;8.346;2022-07-12T10:14:45;1.63;;;0.60;;
5054;SDS011;13829;48.990;8.346;2022-07-12T10:17:20;1.08;;;0.43;;
5054;SDS011;13829;48.990;8.346;2022-07-12T10:19:48;1.40;;;0.60;;
5054;SDS011;13829;48.990;8.346;2022-07-12T10:22:20;0.70;;;0.70;;
5054;SDS011;13829;48.990;8.346;2022-07-12T10:24:49;0.77;;;0.60;;
5054;SDS011;13829;48.990;8.346;2022-07-12T10:27:29;0.40;;;0.40;;
5054;SDS011;13829;48.990;8.346;2022-07-12T10:30:12;0.60;;;0.60;;
5054;SDS011;13829;48.990;8.346;2022-07-12T10:32:48;2.13;;;0.60;;
5054;SDS011;13829;48.990;8.346;2022-07-12T10:35:19;3.05;;;0.50;;
5054;SDS011;13829;48.990;8.346;2022-07-12T10:40:48;0.50;;;0.50;;
5054;SDS011;13829;48.990;8.346;2022-07-12T10:43:20;1.58;;;0.50;;
5054;SDS011;13829;48.990;8.346;2022-07-12T10:46:04;0.60;;;0.60;;
5054;SDS011;13829;48.990;8.346;2022-07-12T10:48:46;0.60;;;0.60;;
5054;SDS011;13829;48.990;8.346;2022-07-12T10:51:13;1.58;;;0.52;;
5054;SDS011;13829;48.990;8.346;2022-07-12T10:53:42;0.60;;;0.60;;
5054;SDS011;13829;48.990;8.346;2022-07-12T10:56:21;2.42;;;1.13;;
5054;SDS011;13829;48.990;8.346;2022-07-12T10:58:51;0.60;;;0.55;;
5054;SDS011;13829;48.990;8.346;2022-07-12T11:01:20;0.85;;;0.50;;
5054;SDS011;13829;48.990;8.346;2022-07-12T11:03:50;0.75;;;0.50;;
5054;SDS011;13829;48.990;8.346;2022-07-12T11:06:20;0.68;;;0.50;;
5054;SDS011;13829;48.990;8.346;2022-07-12T11:08:53;0.47;;;0.47;;
5054;SDS011;13829;48.990;8.346;2022-07-12T11:11:27;0.80;;;0.60;;
5054;SDS011;13829;48.990;8.346;2022-07-12T11:13:56;0.43;;;0.43;;
5054;SDS011;13829;48.990;8.346;2022-07-12T11:16:25;0.65;;;0.63;;
5054;SDS011;13829;48.990;8.346;2022-07-12T11:18:54;2.72;;;0.65;;
5054;SDS011;13829;48.990;8.346;2022-07-12T11:21:22;1.02;;;0.60;;
5054;SDS011;13829;48.990;8.346;2022-07-12T11:23:50;0.85;;;0.50;;
5054;SDS011;13829;48.990;8.346;2022-07-12T11:26:19;2.08;;;0.60;;
5054;SDS011;13829;48.990;8.346;2022-07-12T11:28:50;5.90;;;3.95;;
5054;SDS011;13829;48.990;8.346;2022-07-12T11:31:17;1.30;;;0.55;;
5054;SDS011;13829;48.990;8.346;2022-07-12T11:33:46;1.75;;;0.30;;
5054;SDS011;13829;48.990;8.346;2022-07-12T11:36:16;0.75;;;0.50;;
5054;SDS011;13829;48.990;8.346;2022-07-12T11:38:45;0.50;;;0.50;;
5054;SDS011;13829;48.990;8.346;2022-07-12T11:41:13;0.50;;;0.50;;
5054;SDS011;13829;48.990;8.346;2022-07-12T11:43:41;1.40;;;0.47;;
5054;SDS011;13829;48.990;8.346;2022-07-12T11:46:10;1.00;;;0.50;;
5054;SDS011;13829;48.990;8.346;2022-07-12T11:48:39;1.05;;;0.45;;
5054;SDS011;13829;48.990;8.346;2022-07-12T11:51:11;0.55;;;0.55;;
5054;SDS011;13829;48.990;8.346;2022-07-12T11:53:39;0.60;;;0.55;;
5054;SDS011;13829;48.990;8.346;2022-07-12T11:56:08;0.65;;;0.47;;
5054;SDS011;13829;48.990;8.346;2022-07-12T11:58:36;1.08;;;0.60;;
5054;SDS011;13829;48.990;8.346;2022-07-12T12:01:04;0.55;;;0.55;;
5054;SDS011;13829;48.990;8.346;2022-07-12T12:03:43;0.40;;;0.40;;
5054;SDS011;13829;48.990;8.346;2022-07-12T12:06:12;2.05;;;0.50;;
5054;SDS011;13829;48.990;8.346;2022-07-12T12:08:39;0.50;;;0.50;;
5054;SDS011;13829;48.990;8.346;2022-07-12T12:11:09;1.48;;;0.50;;
5054;SDS011;13829;48.990;8.346;2022-07-12T12:13:37;0.40;;;0.40;;
5054;SDS011;13829;48.990;8.346;2022-07-12T12:16:04;0.50;;;0.40;;
5054;SDS011;13829;48.990;8.346;2022-07-12T12:18:33;0.88;;;0.50;;
5054;SDS011;13829;48.990;8.346;2022-07-12T12:21:04;1.92;;;0.60;;
5054;SDS011;13829;48.990;8.346;2022-07-12T12:23:33;3.28;;;0.55;;
5054;SDS011;13829;48.990;8.346;2022-07-12T12:26:10;0.68;;;0.55;;
5054;SDS011;13829;48.990;8.346;2022-07-12T12:28:40;1.73;;;0.60;;
5054;SDS011;13829;48.990;8.346;2022-07-12T12:31:12;2.33;;;0.50;;
5054;SDS011;13829;48.990;8.346;2022-07-12T12:33:42;1.38;;;0.40;;
5054;SDS011;13829;48.990;8.346;2022-07-12T12:36:20;1.15;;;0.70;;
5054;SDS011;13829;48.990;8.346;2022-07-12T12:38:50;0.60;;;0.57;;
5054;SDS011;13829;48.990;8.346;2022-07-12T12:41:19;1.40;;;0.60;;
5054;SDS011;13829;48.990;8.346;2022-07-12T12:43:48;0.65;;;0.55;;
5054;SDS011;13829;48.990;8.346;2022-07-12T12:52:14;1.80;;;0.60;;
5054;SDS011;13829;48.990;8.346;2022-07-12T12:54:41;0.85;;;0.50;;
5054;SDS011;13829;48.990;8.346;2022-07-12T12:57:09;0.63;;;0.60;;
5054;SDS011;13829;48.990;8.346;2022-07-12T12:59:37;2.53;;;0.50;;
5054;SDS011;13829;48.990;8.346;2022-07-12T13:02:05;0.73;;;0.43;;
5054;SDS011;13829;48.990;8.346;2022-07-12T13:04:35;2.30;;;0.80;;
5054;SDS011;13829;48.990;8.346;2022-07-12T13:07:05;0.60;;;0.60;;
5054;SDS011;13829;48.990;8.346;2022-07-12T13:09:33;1.45;;;0.70;;
5054;SDS011;13829;48.990;8.346;2022-07-12T13:12:00;0.50;;;0.50;;
5054;SDS011;13829;48.990;8.346;2022-07-12T13:14:27;5.53;;;1.20;;
5054;SDS011;13829;48.990;8.346;2022-07-12T13:16:54;3.03;;;0.63;;
5054;SDS011;13829;48.990;8.346;2022-07-12T13:19:21;0.88;;;0.70;;
5054;SDS011;13829;48.990;8.346;2022-07-12T13:21:48;0.70;;;0.70;;
5054;SDS011;13829;48.990;8.346;2022-07-12T13:24:16;4.78;;;1.10;;
5054;SDS011;13829;48.990;8.346;2022-07-12T13:26:43;2.00;;;0.80;;
5054;SDS011;13829;48.990;8.346;2022-07-12T13:29:10;2.55;;;0.70;;
5054;SDS011;13829;48.990;8.346;2022-07-12T13:31:38;1.70;;;0.80;;
5054;SDS011;13829;48.990;8.346;2022-07-12T13:34:05;1.77;;;1.05;;
5054;SDS011;13829;48.990;8.346;2022-07-12T13:36:32;2.03;;;0.70;;
5054;SDS011;13829;48.990;8.346;2022-07-12T13:38:59;0.70;;;0.70;;
5054;SDS011;13829;48.990;8.346;2022-07-12T13:41:47;1.52;;;0.60;;
5054;SDS011;13829;48.990;8.346;2022-07-12T13:44:14;1.55;;;0.70;;
5054;SDS011;13829;48.990;8.346;2022-07-12T13:46:41;0.80;;;0.70;;
5054;SDS011;13829;48.990;8.346;2022-07-12T13:49:08;0.77;;;0.77;;
5054;SDS011;13829;48.990;8.346;2022-07-12T13:51:35;2.95;;;0.95;;
5054;SDS011;13829;48.990;8.346;2022-07-12T13:54:02;1.35;;;1.10;;
5054;SDS011;13829;48.990;8.346;2022-07-12T13:56:29;1.23;;;1.13;;
5054;SDS011;13829;48.990;8.346;2022-07-12T13:59:00;1.65;;;1.55;;
5054;SDS011;13829;48.990;8.346;2022-07-12T14:01:27;1.30;;;1.05;;
5054;SDS011;13829;48.990;8.346;2022-07-12T14:03:54;1.02;;;0.98;;
5054;SDS011;13829;48.990;8.346;2022-07-12T14:06:21;2.60;;;1.08;;
5054;SDS011;13829;48.990;8.346;2022-07-12T14:08:48;5.00;;;0.80;;
5054;SDS011;13829;48.990;8.346;2022-07-12T14:11:16;1.70;;;0.70;;
5054;SDS011;13829;48.990;8.346;2022-07-12T14:13:43;2.95;;;0.93;;
5054;SDS011;13829;48.990;8.346;2022-07-12T14:16:12;1.05;;;0.68;;
5054;SDS011;13829;48.990;8.346;2022-07-12T14:18:39;1.95;;;0.63;;
5054;SDS011;13829;48.990;8.346;2022-07-12T14:21:06;1.10;;;0.80;;
5054;SDS011;13829;48.990;8.346;2022-07-12T14:23:33;0.80;;;0.80;;
5054;SDS011;13829;48.990;8.346;2022-07-12T14:26:00;5.25;;;0.77;;
5054;SDS011;13829;48.990;8.346;2022-07-12T14:28:27;0.80;;;0.63;;
5054;SDS011;13829;48.990;8.346;2022-07-12T14:30:54;3.03;;;0.70;;
5054;SDS011;13829;48.990;8.346;2022-07-12T14:33:22;1.38;;;0.80;;
5054;SDS011;13829;48.990;8.346;2022-07-12T14:35:49;1.17;;;0.82;;
5054;SDS011;13829;48.990;8.346;2022-07-12T14:38:16;4.45;;;0.80;;
5054;SDS011;13829;48.990;8.346;2022-07-12T14:40:43;1.05;;;0.95;;
5054;SDS011;13829;48.990;8.346;2022-07-12T14:43:10;1.13;;;0.70;;
5054;SDS011;13829;48.990;8.346;2022-07-12T14:45:37;2.03;;;0.82;;
5054;SDS011;13829;48.990;8.346;2022-07-12T14:48:04;0.73;;;0.70;;
5054;SDS011;13829;48.990;8.346;2022-07-12T14:50:33;1.17;;;0.60;;
5054;SDS011;13829;48.990;8.346;2022-07-12T14:53:00;0.80;;;0.80;;
5054;SDS011;13829;48.990;8.346;2022-07-12T14:55:27;1.85;;;0.85;;
5054;SDS011;13829;48.990;8.346;2022-07-12T14:57:54;2.05;;;1.00;;
5054;SDS011;13829;48.990;8.346;2022-07-12T15:00:22;1.05;;;0.90;;
5054;SDS011;13829;48.990;8.346;2022-07-12T15:02:49;1.08;;;0.98;;
5054;SDS011;13829;48.990;8.346;2022-07-12T15:05:16;1.48;;;0.70;;
5054;SDS011;13829;48.990;8.346;2022-07-12T15:07:45;2.03;;;0.80;;
5054;SDS011;13829;48.990;8.346;2022-07-12T15:10:12;0.80;;;0.60;;
5054;SDS011;13829;48.990;8.346;2022-07-12T15:12:39;2.25;;;0.68;;
5054;SDS011;13829;48.990;8.346;2022-07-12T15:15:06;1.20;;;0.60;;
5054;SDS011;13829;48.990;8.346;2022-07-12T15:17:33;2.28;;;0.98;;